Time;durP1;ratioP1;P1;durP2;ratioP2;P2;SDS_P1;SDS_P2;PMS_P1;PMS_P2;Temp;Humidity;BMP_temperature;BMP_pressure;BME280_temperature;BME280_humidity;BME280_pressure;Samples;Min_cycle;Max_cycle;Signal;HPM_P1;HPM_P2
2022/07/28 00:00:11;;;;;;;3.27;1.97;;;13.20;99.90;;;;;;5092039;28;20534;-72
2022/07/28 00:03:00;;;;;;;3.20;2.20;;;13.10;99.90;;;;;;5093639;28;20455;-71
2022/07/28 00:05:48;;;;;;;4.03;1.80;;;13.00;99.90;;;;;;5097193;28;20469;-73
2022/07/28 00:08:37;;;;;;;2.60;2.00;;;13.00;99.90;;;;;;5097963;27;20483;-73
2022/07/28 00:11:25;;;;;;;2.07;1.90;;;13.00;99.90;;;;;;5099426;28;20532;-71
2022/07/28 00:14:14;;;;;;;2.67;2.07;;;13.00;99.90;;;;;;5093547;28;20479;-71
2022/07/28 00:17:04;;;;;;;4.93;2.30;;;13.00;99.90;;;;;;5095817;28;20449;-75
2022/07/28 00:19:52;;;;;;;4.43;2.17;;;12.90;99.90;;;;;;5100495;28;21371;-71
2022/07/28 00:22:44;;;;;;;3.07;2.23;;;12.90;99.90;;;;;;5097222;28;20539;-71
2022/07/28 00:25:32;;;;;;;2.40;2.20;;;12.80;99.90;;;;;;5092739;27;20655;-72
2022/07/28 00:28:20;;;;;;;4.43;2.17;;;12.80;99.90;;;;;;5095530;28;20511;-75
2022/07/28 00:31:09;;;;;;;3.07;2.00;;;12.80;99.90;;;;;;5095927;28;20456;-71
2022/07/28 00:34:01;;;;;;;2.87;2.20;;;12.70;99.90;;;;;;5088365;28;20456;-73
2022/07/28 00:36:49;;;;;;;3.73;2.20;;;12.70;99.90;;;;;;5096047;28;20491;-72
2022/07/28 00:39:37;;;;;;;3.10;2.37;;;12.60;99.90;;;;;;5096882;27;20529;-72
2022/07/28 00:42:25;;;;;;;2.10;1.90;;;12.60;99.90;;;;;;5095530;28;20537;-71
2022/07/28 00:45:14;;;;;;;3.40;2.20;;;12.60;99.90;;;;;;5094364;28;20518;-72
2022/07/28 00:48:02;;;;;;;3.40;2.10;;;12.60;99.90;;;;;;5095265;27;20468;-72
2022/07/28 00:50:52;;;;;;;2.80;2.10;;;12.50;99.90;;;;;;5097116;28;20440;-72
2022/07/28 00:53:40;;;;;;;2.20;2.00;;;12.50;99.90;;;;;;5095563;28;20444;-72
2022/07/28 00:56:28;;;;;;;2.30;2.10;;;12.50;99.90;;;;;;5090982;28;20479;-72
2022/07/28 00:59:17;;;;;;;2.40;2.20;;;12.50;99.90;;;;;;5093536;27;20526;-71
2022/07/28 01:02:07;;;;;;;5.13;2.50;;;12.40;99.90;;;;;;5095130;28;20543;-72
2022/07/28 01:04:55;;;;;;;2.00;1.90;;;12.40;99.90;;;;;;5094073;28;21093;-72
2022/07/28 01:07:50;;;;;;;3.70;2.40;;;12.30;99.90;;;;;;5091112;28;20478;-72
2022/07/28 01:10:45;;;;;;;3.70;2.10;;;12.40;99.90;;;;;;5092983;28;20565;-73
2022/07/28 01:13:40;;;;;;;3.90;2.40;;;12.30;99.90;;;;;;5088422;28;20485;-72
2022/07/28 01:16:28;;;;;;;2.13;1.93;;;12.30;99.90;;;;;;5094784;28;20452;-73
2022/07/28 01:19:33;;;;;;;2.80;2.50;;;12.20;99.90;;;;;;5092254;28;20472;-72
2022/07/28 01:22:25;;;;;;;2.40;1.87;;;12.20;99.90;;;;;;5091638;28;20448;-70
2022/07/28 01:25:23;;;;;;;2.27;2.07;;;12.20;99.90;;;;;;5094919;28;20456;-70
2022/07/28 01:28:24;;;;;;;2.87;2.33;;;12.20;99.90;;;;;;5091420;28;20982;-70
2022/07/28 01:31:19;;;;;;;3.53;2.33;;;12.10;99.90;;;;;;5097475;28;21144;-73
2022/07/28 01:34:12;;;;;;;2.50;2.30;;;12.10;99.90;;;;;;5099422;27;20455;-71
2022/07/28 01:37:07;;;;;;;2.20;2.00;;;12.10;99.90;;;;;;5095853;28;20444;-71
2022/07/28 01:39:58;;;;;;;2.60;2.13;;;12.10;99.90;;;;;;5090226;28;20470;-71
2022/07/28 01:42:49;;;;;;;2.80;2.20;;;12.10;99.90;;;;;;5091693;28;20597;-71
2022/07/28 01:45:39;;;;;;;2.63;2.43;;;12.10;99.90;;;;;;5094725;28;20563;-74
2022/07/28 01:48:31;;;;;;;3.13;2.80;;;12.00;99.90;;;;;;5091463;28;21014;-70
2022/07/28 01:51:22;;;;;;;2.57;2.37;;;12.00;99.90;;;;;;5094784;27;20575;-72
2022/07/28 01:54:12;;;;;;;2.87;2.57;;;12.00;99.90;;;;;;5094200;28;20491;-71
2022/07/28 01:57:01;;;;;;;3.20;2.17;;;12.00;99.90;;;;;;5090702;28;20449;-71
2022/07/28 01:59:52;;;;;;;2.80;2.50;;;12.00;99.90;;;;;;5087530;28;21137;-71
2022/07/28 02:02:43;;;;;;;4.63;3.03;;;12.10;99.90;;;;;;5098605;28;20911;-71
2022/07/28 02:05:34;;;;;;;5.57;2.50;;;12.10;99.90;;;;;;5095501;28;20448;-74
2022/07/28 02:08:24;;;;;;;3.00;2.67;;;12.10;99.90;;;;;;5095802;28;20468;-71
2022/07/28 02:14:21;;;;;;;2.33;2.13;;;12.10;99.90;;;;;;5093637;28;20482;-70
2022/07/28 02:17:12;;;;;;;3.30;2.57;;;12.20;99.90;;;;;;5093050;28;20521;-74
2022/07/28 02:20:03;;;;;;;3.10;2.80;;;12.20;99.90;;;;;;5093581;28;20467;-71
2022/07/28 02:22:54;;;;;;;4.20;2.93;;;12.20;99.90;;;;;;5091613;28;21039;-72
2022/07/28 02:25:43;;;;;;;3.17;2.37;;;12.20;99.90;;;;;;5089377;27;20547;-71
2022/07/28 02:28:32;;;;;;;3.90;2.77;;;12.20;99.90;;;;;;5094819;28;21235;-72
2022/07/28 02:31:25;;;;;;;3.40;2.60;;;12.20;99.90;;;;;;5089566;28;20488;-72
2022/07/28 02:34:16;;;;;;;3.80;2.70;;;12.30;99.90;;;;;;5091813;28;20441;-73
2022/07/28 02:37:08;;;;;;;2.87;2.57;;;12.30;99.90;;;;;;5099347;28;20563;-72
2022/07/28 02:40:01;;;;;;;3.50;2.60;;;12.30;99.90;;;;;;5091064;28;20447;-72
2022/07/28 02:42:52;;;;;;;3.50;2.63;;;12.30;99.90;;;;;;5083414;28;20460;-72
2022/07/28 02:45:45;;;;;;;3.10;2.30;;;12.30;99.90;;;;;;5094775;28;20496;-71
2022/07/28 02:48:35;;;;;;;3.40;2.57;;;12.20;99.90;;;;;;5090567;28;20463;-71
2022/07/28 02:51:27;;;;;;;2.70;2.10;;;12.20;99.90;;;;;;5095647;28;20472;-71
2022/07/28 02:54:18;;;;;;;3.00;2.70;;;12.20;99.90;;;;;;5087586;28;21123;-73
2022/07/28 02:57:09;;;;;;;3.00;2.60;;;12.20;99.90;;;;;;5088438;28;20645;-75
2022/07/28 02:59:58;;;;;;;3.57;2.80;;;12.20;99.90;;;;;;5103466;28;20990;-71
2022/07/28 03:02:47;;;;;;;2.60;2.30;;;12.20;99.90;;;;;;5093676;28;20459;-71
2022/07/28 03:05:36;;;;;;;4.10;2.50;;;12.20;99.90;;;;;;5089300;28;20537;-72
2022/07/28 03:08:24;;;;;;;2.40;2.10;;;12.20;99.90;;;;;;5092926;28;20819;-74
2022/07/28 03:11:14;;;;;;;4.17;2.83;;;12.20;99.90;;;;;;5091263;28;20613;-71
2022/07/28 03:14:03;;;;;;;2.83;2.53;;;12.20;99.90;;;;;;5091385;28;21080;-72
2022/07/28 03:16:52;;;;;;;3.43;2.30;;;12.20;99.90;;;;;;5089094;28;20444;-72
2022/07/28 03:19:43;;;;;;;4.43;2.97;;;12.20;99.90;;;;;;5103161;28;20525;-74
2022/07/28 03:22:31;;;;;;;3.60;2.30;;;12.20;99.90;;;;;;5095415;28;20519;-73
2022/07/28 03:25:24;;;;;;;3.73;2.80;;;12.20;99.90;;;;;;5090974;28;20499;-74
2022/07/28 03:28:18;;;;;;;4.13;2.77;;;12.30;99.90;;;;;;5094732;28;20527;-72
2022/07/28 03:31:10;;;;;;;3.57;2.77;;;12.30;99.90;;;;;;5092925;28;20479;-73
2022/07/28 03:33:59;;;;;;;4.07;3.00;;;12.30;99.90;;;;;;5092156;27;20443;-72
2022/07/28 03:36:52;;;;;;;3.33;2.90;;;12.30;99.90;;;;;;5095027;28;20456;-73
2022/07/28 03:39:46;;;;;;;3.63;2.50;;;12.30;99.90;;;;;;5093987;28;20468;-74
2022/07/28 03:42:36;;;;;;;6.20;2.80;;;12.40;99.90;;;;;;5090792;28;20456;-72
2022/07/28 03:45:28;;;;;;;3.23;2.43;;;12.40;99.90;;;;;;5088499;28;20499;-72
2022/07/28 03:48:20;;;;;;;3.33;2.50;;;12.40;99.90;;;;;;5094182;28;20529;-74
2022/07/28 03:51:08;;;;;;;2.57;2.37;;;12.40;99.90;;;;;;5092513;28;20512;-72
2022/07/28 03:53:56;;;;;;;4.30;2.83;;;12.40;99.90;;;;;;5093393;28;20454;-72
2022/07/28 03:56:45;;;;;;;2.93;2.07;;;12.40;99.90;;;;;;5099537;28;20865;-73
2022/07/28 03:59:33;;;;;;;3.90;2.43;;;12.50;99.90;;;;;;5095796;28;20479;-72
2022/07/28 04:02:21;;;;;;;4.33;2.63;;;12.50;99.90;;;;;;5093967;28;20490;-73
2022/07/28 04:05:13;;;;;;;3.57;2.17;;;12.50;99.90;;;;;;5093327;28;20452;-72
2022/07/28 04:08:01;;;;;;;2.60;2.40;;;12.50;99.90;;;;;;5091198;27;20483;-73
2022/07/28 04:10:49;;;;;;;2.83;2.63;;;12.50;99.90;;;;;;5091626;28;20555;-72
2022/07/28 04:13:38;;;;;;;3.47;3.17;;;12.50;99.90;;;;;;5094911;28;21052;-72
2022/07/28 04:16:26;;;;;;;3.50;2.80;;;12.60;99.90;;;;;;5097177;28;20539;-73
2022/07/28 04:19:15;;;;;;;3.33;2.13;;;12.60;99.90;;;;;;5091832;28;20962;-73
2022/07/28 04:22:04;;;;;;;3.43;2.60;;;12.70;99.90;;;;;;5093446;28;20933;-72
2022/07/28 04:24:52;;;;;;;2.47;2.27;;;12.60;99.90;;;;;;5090945;27;20455;-73
2022/07/28 04:27:42;;;;;;;3.10;2.80;;;12.70;99.90;;;;;;5096624;28;20460;-74
2022/07/28 04:30:30;;;;;;;2.63;2.43;;;12.70;99.90;;;;;;5096112;28;20471;-72
2022/07/28 04:33:19;;;;;;;3.80;2.70;;;12.70;99.90;;;;;;5091220;28;20960;-73
2022/07/28 04:36:07;;;;;;;2.60;2.40;;;12.80;99.90;;;;;;5096641;28;20452;-73
2022/07/28 04:38:58;;;;;;;3.13;2.67;;;12.80;99.90;;;;;;5094999;28;20525;-72
2022/07/28 04:41:46;;;;;;;2.67;2.47;;;12.80;99.90;;;;;;5091383;27;20985;-72
2022/07/28 04:44:39;;;;;;;4.73;2.67;;;12.90;99.90;;;;;;5095014;28;20979;-72
2022/07/28 04:47:28;;;;;;;4.50;2.83;;;12.90;99.90;;;;;;5094516;28;20440;-73
2022/07/28 04:50:18;;;;;;;3.67;2.90;;;12.90;99.90;;;;;;5096539;28;21029;-75
2022/07/28 04:53:07;;;;;;;4.10;2.50;;;12.90;99.90;;;;;;5094877;28;20480;-72
2022/07/28 04:55:56;;;;;;;2.50;2.30;;;13.00;99.90;;;;;;5093525;28;20449;-73
2022/07/28 04:58:45;;;;;;;3.13;2.83;;;13.00;99.90;;;;;;5097926;27;20600;-72
2022/07/28 05:01:37;;;;;;;5.47;2.97;;;13.10;99.90;;;;;;5094019;28;20531;-72
2022/07/28 05:04:26;;;;;;;3.20;2.70;;;13.10;99.90;;;;;;5086208;28;20456;-74
2022/07/28 05:07:14;;;;;;;3.43;2.40;;;13.20;99.90;;;;;;5088661;28;20458;-72
2022/07/28 05:10:03;;;;;;;3.57;2.60;;;13.20;99.90;;;;;;5092457;28;20828;-73
2022/07/28 05:12:53;;;;;;;6.90;2.57;;;13.30;99.90;;;;;;5096925;28;20552;-74
2022/07/28 05:15:41;;;;;;;4.63;2.90;;;13.30;99.90;;;;;;5093595;28;23885;-72
2022/07/28 05:18:30;;;;;;;4.60;2.80;;;13.30;99.90;;;;;;5090375;28;20476;-75
2022/07/28 05:21:18;;;;;;;2.93;2.57;;;13.40;99.90;;;;;;5091325;28;20617;-71
2022/07/28 05:24:10;;;;;;;4.80;2.77;;;13.40;99.90;;;;;;5091585;28;20628;-75
2022/07/28 05:26:58;;;;;;;4.63;2.60;;;13.40;99.90;;;;;;5087278;28;21422;-75
2022/07/28 05:29:48;;;;;;;3.80;2.40;;;13.50;99.90;;;;;;5093359;28;20817;-72
2022/07/28 05:32:39;;;;;;;3.67;2.80;;;13.60;99.90;;;;;;5085122;27;21022;-74
2022/07/28 05:35:27;;;;;;;4.60;2.20;;;13.60;99.90;;;;;;5089085;28;20456;-72
2022/07/28 05:38:15;;;;;;;3.80;2.00;;;13.70;99.90;;;;;;5088744;28;20498;-72
2022/07/28 05:41:05;;;;;;;4.97;1.57;;;13.80;99.90;;;;;;5081325;28;20827;-75
2022/07/28 05:43:53;;;;;;;3.10;1.50;;;13.80;99.90;;;;;;5094981;28;20440;-72
2022/07/28 05:46:44;;;;;;;3.50;2.00;;;13.90;99.90;;;;;;5096967;28;20839;-73
2022/07/28 05:49:32;;;;;;;3.23;2.10;;;13.90;99.90;;;;;;5086666;28;20556;-72
2022/07/28 05:52:20;;;;;;;2.60;2.07;;;13.90;99.90;;;;;;5088741;28;21040;-75
2022/07/28 05:55:09;;;;;;;4.37;3.07;;;14.00;99.90;;;;;;5095036;28;20451;-72
2022/07/28 05:57:59;;;;;;;2.83;1.90;;;14.10;99.90;;;;;;5092039;28;20544;-72
2022/07/28 06:00:47;;;;;;;1.73;1.63;;;14.20;99.90;;;;;;5087767;28;20461;-74
2022/07/28 06:03:38;;;;;;;5.17;1.70;;;14.20;99.90;;;;;;5078766;28;20552;-73
2022/07/28 06:06:29;;;;;;;2.20;1.80;;;14.30;99.90;;;;;;5076033;28;20453;-74
2022/07/28 06:09:18;;;;;;;2.80;1.90;;;14.30;99.90;;;;;;5093276;27;23038;-72
2022/07/28 06:12:07;;;;;;;3.77;2.00;;;14.40;99.90;;;;;;5094164;28;20582;-72
2022/07/28 06:14:55;;;;;;;5.87;2.70;;;14.50;99.90;;;;;;5091565;28;20452;-72
2022/07/28 06:17:44;;;;;;;1.97;1.70;;;14.60;99.90;;;;;;5085148;28;20476;-73
2022/07/28 06:20:36;;;;;;;3.67;1.47;;;14.60;99.90;;;;;;5087640;28;20445;-74
2022/07/28 06:23:25;;;;;;;3.43;1.83;;;14.70;99.90;;;;;;5087061;28;20447;-73
2022/07/28 06:26:13;;;;;;;4.13;1.80;;;14.80;99.90;;;;;;5093619;28;20962;-73
2022/07/28 06:29:01;;;;;;;4.43;1.73;;;14.90;99.90;;;;;;5092432;28;20479;-76
2022/07/28 06:31:49;;;;;;;3.33;1.47;;;14.90;99.90;;;;;;5088665;28;20616;-73
2022/07/28 06:34:38;;;;;;;3.80;1.90;;;15.00;99.90;;;;;;5088705;28;20437;-73
2022/07/28 06:37:27;;;;;;;3.30;1.73;;;15.10;99.90;;;;;;5093207;28;20475;-73
2022/07/28 06:40:17;;;;;;;1.97;1.30;;;15.10;99.90;;;;;;5095650;28;20448;-74
2022/07/28 06:43:07;;;;;;;3.70;1.37;;;15.10;99.90;;;;;;5089771;28;20456;-73
2022/07/28 06:45:55;;;;;;;2.10;1.90;;;15.20;99.90;;;;;;5086552;28;20588;-73
2022/07/28 06:48:44;;;;;;;3.23;1.20;;;15.20;99.90;;;;;;5092950;28;20475;-76
2022/07/28 06:51:33;;;;;;;3.27;1.67;;;15.30;99.90;;;;;;5092819;28;20471;-73
2022/07/28 06:54:26;;;;;;;3.20;1.93;;;15.30;99.90;;;;;;5089875;28;20448;-72
2022/07/28 06:57:15;;;;;;;2.37;1.63;;;15.40;99.90;;;;;;5091025;28;20445;-74
2022/07/28 07:00:06;;;;;;;7.30;2.20;;;15.40;99.90;;;;;;5091497;28;21307;-75
2022/07/28 07:02:55;;;;;;;2.47;1.43;;;15.40;99.90;;;;;;5091685;28;20452;-75
2022/07/28 07:05:43;;;;;;;7.23;1.70;;;15.50;99.90;;;;;;5088690;28;21055;-72
2022/07/28 07:08:31;;;;;;;2.93;1.10;;;15.50;99.90;;;;;;5085189;28;22700;-72
2022/07/28 07:11:21;;;;;;;2.23;1.50;;;15.60;99.90;;;;;;5093175;28;22371;-72
2022/07/28 07:14:09;;;;;;;2.90;1.70;;;15.60;99.90;;;;;;5106542;27;20555;-73
2022/07/28 07:16:57;;;;;;;2.57;1.63;;;15.70;99.90;;;;;;5097463;28;20511;-71
2022/07/28 07:19:46;;;;;;;7.93;1.70;;;15.70;99.90;;;;;;5106689;28;20541;-71
2022/07/28 07:22:34;;;;;;;3.43;1.90;;;15.80;99.90;;;;;;5102001;28;20532;-73
2022/07/28 07:25:22;;;;;;;2.87;1.60;;;15.80;99.90;;;;;;5095990;28;20591;-73
2022/07/28 07:28:12;;;;;;;3.27;1.80;;;15.90;99.90;;;;;;5098858;28;20868;-72
2022/07/28 07:31:00;;;;;;;4.57;1.80;;;15.90;99.90;;;;;;5096334;28;20444;-72
2022/07/28 07:33:49;;;;;;;2.80;1.67;;;16.00;99.90;;;;;;5095788;28;20846;-73
2022/07/28 07:36:37;;;;;;;4.10;1.97;;;16.00;99.90;;;;;;5096328;28;20447;-74
2022/07/28 07:39:25;;;;;;;3.83;1.80;;;16.10;99.90;;;;;;5100908;22;20992;-75
2022/07/28 07:42:14;;;;;;;3.00;1.73;;;16.20;99.90;;;;;;5093134;28;20935;-75
2022/07/28 07:45:04;;;;;;;3.70;1.80;;;16.20;99.90;;;;;;5094002;28;20451;-75
2022/07/28 07:47:52;;;;;;;2.20;1.57;;;16.20;99.90;;;;;;5084291;27;20503;-75
2022/07/28 07:50:41;;;;;;;3.70;2.10;;;16.30;99.90;;;;;;5069471;28;21035;-75
2022/07/28 07:53:29;;;;;;;2.80;1.67;;;16.30;99.90;;;;;;5072583;28;20662;-74
2022/07/28 07:56:17;;;;;;;2.83;1.27;;;16.30;99.90;;;;;;5063116;28;20492;-74
2022/07/28 07:59:06;;;;;;;2.17;1.70;;;16.40;99.90;;;;;;5057820;28;20473;-74
2022/07/28 08:01:56;;;;;;;3.23;2.40;;;16.50;99.90;;;;;;5079384;28;20576;-74
2022/07/28 08:04:47;;;;;;;3.63;1.80;;;16.50;99.90;;;;;;5078644;28;20750;-74
2022/07/28 08:07:36;;;;;;;3.27;1.60;;;16.60;99.90;;;;;;5073564;28;20574;-74
2022/07/28 08:10:24;;;;;;;3.50;1.77;;;16.70;99.90;;;;;;5079811;28;20453;-73
2022/07/28 08:13:12;;;;;;;2.90;1.40;;;16.70;99.90;;;;;;5075203;28;20487;-73
2022/07/28 08:16:02;;;;;;;2.37;1.50;;;16.80;99.90;;;;;;5081136;28;20823;-73
2022/07/28 08:18:52;;;;;;;3.77;1.70;;;16.80;99.90;;;;;;5084567;28;20563;-73
2022/07/28 08:21:40;;;;;;;2.00;1.30;;;16.80;99.90;;;;;;5079336;28;21007;-73
2022/07/28 08:24:29;;;;;;;4.20;1.37;;;16.90;99.90;;;;;;5083121;28;20595;-71
2022/07/28 08:27:24;;;;;;;1.77;1.47;;;16.90;99.90;;;;;;5081637;28;20811;-73
2022/07/28 08:30:14;;;;;;;2.37;1.43;;;16.90;99.90;;;;;;5073821;28;20609;-71
2022/07/28 08:33:08;;;;;;;2.60;1.40;;;16.90;99.90;;;;;;5080893;28;20465;-71
2022/07/28 08:35:58;;;;;;;3.17;1.37;;;17.00;99.90;;;;;;5080067;28;20812;-71
2022/07/28 08:38:47;;;;;;;2.20;1.10;;;17.00;99.90;;;;;;5081967;28;20488;-71
2022/07/28 08:41:42;;;;;;;2.83;1.57;;;17.00;99.90;;;;;;5082768;28;20456;-71
2022/07/28 08:44:45;;;;;;;2.40;1.70;;;17.10;99.90;;;;;;5079391;28;20513;-71
2022/07/28 08:47:35;;;;;;;2.60;1.30;;;17.10;99.90;;;;;;5077671;28;20588;-74
2022/07/28 08:50:39;;;;;;;4.10;1.57;;;17.10;99.90;;;;;;5084931;28;20456;-71
2022/07/28 08:53:30;;;;;;;2.50;1.30;;;17.20;99.90;;;;;;5078377;28;20469;-71
2022/07/28 08:56:19;;;;;;;1.67;1.57;;;17.20;99.90;;;;;;5073652;28;20906;-71
2022/07/28 08:59:08;;;;;;;2.17;1.30;;;17.20;99.90;;;;;;5079615;28;20617;-71
2022/07/28 09:01:56;;;;;;;3.63;1.30;;;17.30;99.90;;;;;;5081007;28;20457;-71
2022/07/28 09:04:45;;;;;;;3.50;1.50;;;17.30;99.90;;;;;;5086925;28;20936;-71
2022/07/28 09:07:36;;;;;;;2.67;1.23;;;17.40;99.90;;;;;;5078775;28;20788;-71
2022/07/28 09:10:26;;;;;;;3.13;1.30;;;17.50;99.90;;;;;;5083823;28;20475;-71
2022/07/28 09:13:16;;;;;;;3.13;1.20;;;17.50;99.90;;;;;;5076756;28;20465;-70
2022/07/28 09:16:05;;;;;;;2.47;1.07;;;17.60;99.90;;;;;;5077527;28;20517;-71
2022/07/28 09:18:53;;;;;;;2.07;1.20;;;17.60;99.90;;;;;;5074001;28;20503;-71
2022/07/28 09:21:43;;;;;;;2.30;1.27;;;17.60;99.90;;;;;;5084935;28;20560;-71
2022/07/28 09:24:36;;;;;;;3.60;1.10;;;17.70;99.90;;;;;;5078295;28;20918;-73
2022/07/28 09:27:26;;;;;;;1.93;1.10;;;17.70;99.90;;;;;;5083170;28;21183;-71
2022/07/28 09:30:14;;;;;;;1.10;0.90;;;17.60;99.90;;;;;;5081242;28;20555;-71
2022/07/28 09:33:17;;;;;;;2.20;0.97;;;17.60;99.90;;;;;;5087185;28;21037;-71
2022/07/28 09:36:25;;;;;;;1.17;1.00;;;17.60;99.90;;;;;;5079891;28;20847;-71
2022/07/28 09:39:31;;;;;;;1.57;1.10;;;17.70;99.90;;;;;;5077807;28;21031;-71
2022/07/28 09:42:20;;;;;;;2.50;1.10;;;17.80;99.90;;;;;;5077475;28;20468;-71
2022/07/28 09:45:10;;;;;;;1.20;1.10;;;17.80;99.90;;;;;;5075595;28;20449;-71
2022/07/28 09:48:14;;;;;;;3.73;1.50;;;17.80;99.90;;;;;;5079175;28;20572;-71
2022/07/28 09:51:11;;;;;;;1.50;0.83;;;17.80;99.90;;;;;;5078159;28;20510;-74
2022/07/28 09:54:08;;;;;;;3.90;1.47;;;17.80;99.90;;;;;;5087466;28;20589;-71
2022/07/28 09:56:57;;;;;;;2.47;1.10;;;17.80;99.90;;;;;;5078059;28;20567;-71
2022/07/28 09:59:45;;;;;;;1.77;1.20;;;17.80;99.90;;;;;;5084064;28;20564;-73
2022/07/28 10:02:49;;;;;;;2.70;1.40;;;17.80;99.90;;;;;;5069620;28;20459;-71
2022/07/28 10:05:41;;;;;;;1.20;1.00;;;17.80;99.90;;;;;;5082838;28;20441;-71
2022/07/28 10:08:40;;;;;;;1.20;1.10;;;17.80;99.90;;;;;;5084446;28;20496;-71
2022/07/28 10:11:30;;;;;;;2.93;1.10;;;17.90;99.90;;;;;;5077108;28;20456;-71
2022/07/28 10:14:20;;;;;;;2.07;1.10;;;17.90;99.90;;;;;;5072802;28;20516;-71
2022/07/28 10:17:21;;;;;;;1.67;0.93;;;17.90;99.90;;;;;;5081410;28;20499;-72
2022/07/28 10:20:12;;;;;;;2.37;1.00;;;18.00;99.90;;;;;;5079442;28;20610;-72
2022/07/28 10:23:03;;;;;;;0.93;0.90;;;18.00;99.90;;;;;;5080990;28;20513;-72
2022/07/28 10:25:52;;;;;;;1.50;1.13;;;17.90;99.90;;;;;;5080062;28;20544;-73
2022/07/28 10:28:47;;;;;;;1.40;1.07;;;17.90;99.90;;;;;;5079584;28;20572;-72
2022/07/28 10:31:43;;;;;;;4.73;1.57;;;18.00;99.90;;;;;;5081396;28;20500;-72
2022/07/28 10:34:37;;;;;;;1.60;1.20;;;18.00;99.90;;;;;;5074199;28;20955;-72
2022/07/28 10:37:28;;;;;;;1.40;1.10;;;18.10;99.90;;;;;;5089036;28;20970;-74
2022/07/28 10:40:18;;;;;;;1.23;1.10;;;18.10;99.90;;;;;;5074610;28;20566;-71
2022/07/28 10:43:07;;;;;;;1.30;1.03;;;18.10;99.90;;;;;;5077630;28;21072;-71
2022/07/28 10:45:55;;;;;;;1.50;1.20;;;18.20;99.90;;;;;;5087189;28;20971;-71
2022/07/28 10:49:04;;;;;;;1.37;1.20;;;18.20;99.90;;;;;;5081283;28;20896;-73
2022/07/28 10:51:57;;;;;;;1.33;1.10;;;18.30;99.90;;;;;;5082557;28;20457;-71
2022/07/28 10:55:17;;;;;;;1.17;1.03;;;18.30;99.90;;;;;;5080758;28;20584;-71
2022/07/28 10:58:16;;;;;;;1.70;1.13;;;18.30;99.90;;;;;;5074905;28;20445;-71
2022/07/28 11:01:05;;;;;;;1.00;0.90;;;18.30;99.90;;;;;;5085632;28;20994;-71
2022/07/28 11:03:55;;;;;;;0.93;0.90;;;18.40;99.90;;;;;;5077833;28;20821;-71
2022/07/28 11:06:45;;;;;;;1.20;1.10;;;18.40;99.90;;;;;;5075905;28;20461;-71
2022/07/28 11:09:34;;;;;;;1.43;0.87;;;18.40;99.90;;;;;;5082678;28;20464;-71
2022/07/28 11:12:48;;;;;;;1.10;1.10;;;18.50;99.90;;;;;;5081143;28;20501;-71
2022/07/28 11:15:37;;;;;;;2.33;1.53;;;18.60;99.90;;;;;;5080346;28;20485;-71
2022/07/28 11:18:25;;;;;;;1.30;1.20;;;18.70;99.90;;;;;;5079748;28;20595;-71
2022/07/28 11:21:13;;;;;;;4.53;1.50;;;18.80;99.90;;;;;;5080402;28;20842;-71
2022/07/28 11:24:04;;;;;;;1.93;1.13;;;18.80;99.90;;;;;;5086265;28;21387;-71
2022/07/28 11:26:53;;;;;;;1.80;1.57;;;18.90;99.90;;;;;;5085274;28;20586;-71
2022/07/28 11:29:46;;;;;;;1.17;1.03;;;18.90;99.90;;;;;;5077874;28;20464;-71
2022/07/28 11:32:56;;;;;;;1.57;1.13;;;19.00;99.90;;;;;;5084977;28;21049;-71
2022/07/28 11:35:56;;;;;;;3.57;1.20;;;19.00;99.90;;;;;;5080176;28;20575;-71
2022/07/28 11:39:21;;;;;;;1.93;1.40;;;19.10;99.90;;;;;;5077698;28;20499;-71
2022/07/28 11:42:25;;;;;;;2.47;1.40;;;19.10;99.90;;;;;;5079760;28;20969;-71
2022/07/28 11:45:25;;;;;;;3.53;1.70;;;19.10;99.90;;;;;;5084255;28;20445;-74
2022/07/28 11:48:26;;;;;;;2.70;1.80;;;19.10;99.90;;;;;;5081472;28;20468;-74
2022/07/28 11:51:14;;;;;;;2.03;1.20;;;19.10;99.90;;;;;;5081910;28;20463;-73
2022/07/28 11:54:03;;;;;;;4.37;1.90;;;19.10;99.90;;;;;;5086797;28;20506;-71
2022/07/28 11:56:58;;;;;;;2.23;1.23;;;19.10;99.90;;;;;;5085905;28;20456;-71
2022/07/28 11:59:49;;;;;;;3.20;1.50;;;19.10;99.90;;;;;;5076873;28;20476;-71
2022/07/28 12:02:40;;;;;;;1.37;1.10;;;19.20;99.90;;;;;;5085755;28;21658;-71
2022/07/28 12:05:29;;;;;;;5.57;1.30;;;19.20;99.90;;;;;;5083907;28;20449;-71
2022/07/28 12:08:29;;;;;;;2.57;1.30;;;19.10;99.90;;;;;;5082920;28;20468;-71
2022/07/28 12:11:17;;;;;;;4.40;1.67;;;19.10;99.90;;;;;;5086737;28;20910;-71
2022/07/28 12:14:07;;;;;;;6.87;2.10;;;19.10;99.90;;;;;;5079523;28;20523;-71
2022/07/28 12:16:56;;;;;;;7.20;1.63;;;19.10;99.90;;;;;;5085545;28;20534;-71
2022/07/28 12:19:46;;;;;;;1.30;1.20;;;19.10;99.90;;;;;;5078738;28;20472;-71
2022/07/28 12:22:34;;;;;;;4.67;1.40;;;19.10;99.90;;;;;;5080280;28;20544;-71
2022/07/28 12:25:22;;;;;;;1.50;1.40;;;19.00;99.90;;;;;;5087511;28;20441;-74
2022/07/28 12:28:21;;;;;;;1.93;1.40;;;19.00;99.90;;;;;;5082275;28;20469;-71
2022/07/28 12:31:14;;;;;;;1.20;1.10;;;19.00;99.90;;;;;;5082015;28;20476;-71
2022/07/28 12:34:05;;;;;;;2.30;1.60;;;19.10;99.90;;;;;;5086166;28;20457;-71
2022/07/28 12:36:56;;;;;;;2.93;1.23;;;19.00;99.90;;;;;;5085071;28;20460;-71
2022/07/28 12:39:51;;;;;;;1.90;1.43;;;19.10;99.90;;;;;;5080239;28;20996;-72
2022/07/28 12:42:39;;;;;;;1.93;1.20;;;19.10;99.90;;;;;;5076747;28;20492;-72
2022/07/28 12:45:27;;;;;;;1.87;1.10;;;19.00;99.90;;;;;;5077640;28;20791;-71
2022/07/28 12:48:17;;;;;;;2.17;1.20;;;19.00;99.90;;;;;;5083556;28;20473;-72
2022/07/28 12:51:06;;;;;;;2.30;1.60;;;19.00;99.90;;;;;;5086299;28;20534;-71
2022/07/28 12:53:59;;;;;;;3.77;1.30;;;19.00;99.90;;;;;;5086897;28;20942;-71
2022/07/28 12:56:50;;;;;;;2.90;1.53;;;19.00;99.90;;;;;;5076359;28;20900;-72
2022/07/28 12:59:39;;;;;;;2.13;1.23;;;19.10;99.90;;;;;;5085601;28;20565;-72
2022/07/28 13:02:35;;;;;;;1.30;1.20;;;19.10;99.90;;;;;;5090248;28;20469;-72
2022/07/28 13:05:32;;;;;;;2.90;1.60;;;19.10;99.90;;;;;;5077305;28;20438;-72
2022/07/28 13:08:21;;;;;;;1.57;1.10;;;19.10;99.90;;;;;;5077457;28;20868;-71
2022/07/28 13:11:13;;;;;;;1.53;1.20;;;19.10;99.90;;;;;;5077157;28;20448;-71
2022/07/28 13:14:39;;;;;;;2.70;1.53;;;19.10;99.90;;;;;;5078714;28;20481;-71
2022/07/28 13:17:30;;;;;;;1.47;1.30;;;19.20;99.90;;;;;;5074254;28;20594;-71
2022/07/28 13:20:19;;;;;;;1.27;1.17;;;19.30;99.90;;;;;;5076409;28;20437;-71
2022/07/28 13:23:07;;;;;;;2.80;1.37;;;19.30;99.90;;;;;;5075757;28;20458;-72
2022/07/28 13:25:56;;;;;;;1.13;1.00;;;19.40;99.90;;;;;;5080275;28;20464;-71
2022/07/28 13:28:46;;;;;;;2.20;1.47;;;19.50;99.90;;;;;;5078750;28;20549;-72
2022/07/28 13:31:36;;;;;;;3.23;1.43;;;19.60;99.90;;;;;;5074374;28;21000;-72
2022/07/28 13:34:25;;;;;;;1.50;1.40;;;19.70;99.90;;;;;;5080495;28;20438;-72
2022/07/28 13:37:14;;;;;;;1.20;1.10;;;19.80;99.90;;;;;;5085926;28;20860;-72
2022/07/28 13:40:02;;;;;;;3.50;1.50;;;19.90;99.90;;;;;;5079042;28;20481;-72
2022/07/28 13:42:50;;;;;;;1.73;1.07;;;20.10;99.90;;;;;;5064903;22;20526;-71
2022/07/28 13:45:42;;;;;;;2.70;1.47;;;20.30;99.90;;;;;;5041541;28;20458;-71
2022/07/28 13:48:31;;;;;;;1.70;1.40;;;20.50;99.90;;;;;;5047814;28;20914;-71
2022/07/28 13:51:21;;;;;;;1.33;1.23;;;20.70;99.90;;;;;;5044915;28;20472;-71
2022/07/28 13:54:09;;;;;;;2.30;1.50;;;21.00;99.90;;;;;;5062751;28;20535;-71
2022/07/28 13:57:12;;;;;;;3.20;1.67;;;21.10;99.90;;;;;;5056788;28;20566;-71
2022/07/28 14:00:05;;;;;;;2.80;1.30;;;21.10;99.90;;;;;;5057115;28;20479;-71
2022/07/28 14:02:56;;;;;;;3.23;1.40;;;21.10;99.90;;;;;;5056236;28;20481;-71
2022/07/28 14:05:45;;;;;;;2.73;2.03;;;21.20;99.90;;;;;;5058025;28;21020;-71
2022/07/28 14:08:33;;;;;;;1.50;1.30;;;21.20;99.90;;;;;;5059974;28;20450;-71
2022/07/28 14:11:22;;;;;;;1.97;1.30;;;21.10;99.90;;;;;;5058963;28;20560;-71
2022/07/28 14:14:10;;;;;;;1.57;1.40;;;21.20;99.90;;;;;;5057285;28;20536;-70
2022/07/28 14:16:59;;;;;;;2.07;1.40;;;21.10;99.90;;;;;;5060770;28;20482;-71
2022/07/28 14:20:03;;;;;;;1.53;1.40;;;21.00;99.90;;;;;;5058306;28;20599;-71
2022/07/28 14:22:51;;;;;;;2.10;1.80;;;21.10;99.90;;;;;;5058507;28;20501;-71
2022/07/28 14:25:39;;;;;;;1.87;1.20;;;21.20;99.90;;;;;;5060370;28;20540;-71
2022/07/28 14:28:37;;;;;;;3.47;1.40;;;21.30;99.90;;;;;;5059811;28;20450;-71
2022/07/28 14:31:25;;;;;;;2.03;1.23;;;21.50;99.90;;;;;;5051413;28;20566;-71
2022/07/28 14:34:17;;;;;;;1.73;1.53;;;21.70;99.90;;;;;;5060335;28;20461;-71
2022/07/28 14:37:07;;;;;;;2.37;1.60;;;22.20;99.90;;;;;;5063814;28;20939;-71
2022/07/28 14:39:56;;;;;;;1.50;1.37;;;22.80;99.90;;;;;;5051688;28;20830;-71
2022/07/28 14:42:45;;;;;;;1.50;1.40;;;23.50;99.90;;;;;;5061648;28;21054;-71
2022/07/28 14:45:34;;;;;;;2.63;1.83;;;24.00;99.90;;;;;;5034463;28;20564;-70
2022/07/28 14:48:42;;;;;;;1.40;1.30;;;24.00;99.90;;;;;;5053175;28;20555;-72
2022/07/28 14:51:31;;;;;;;2.00;1.50;;;24.00;99.90;;;;;;5042273;28;20477;-72
2022/07/28 14:54:23;;;;;;;1.50;1.40;;;23.80;99.90;;;;;;5050667;28;20465;-71